createdAt,value
2023-05-05T00:02:19.447Z,100863.31
2023-05-05T00:05:24.088Z,100857.00
2023-05-05T00:08:27.149Z,100854.53
2023-05-05T00:11:30.071Z,100860.06
2023-05-05T00:14:33.476Z,100855.66
2023-05-05T00:17:36.526Z,100847.28
2023-05-05T00:20:39.341Z,100844.53
2023-05-05T00:23:42.445Z,100857.78
2023-05-05T00:26:45.287Z,100851.88
2023-05-05T00:29:48.280Z,100849.53
2023-05-05T00:32:51.621Z,100841.06
2023-05-05T00:35:54.620Z,100846.00
2023-05-05T00:39:04.943Z,100848.03
2023-05-05T00:42:12.993Z,100850.34
2023-05-05T00:45:15.926Z,100843.13
2023-05-05T00:48:19.628Z,100842.72
2023-05-05T00:51:28.357Z,100837.94
2023-05-05T00:54:31.620Z,100836.31
2023-05-05T00:57:45.778Z,100830.03
2023-05-05T01:00:48.900Z,100832.44
2023-05-05T01:03:51.800Z,100831.56
2023-05-05T01:07:33.158Z,100829.41
2023-05-05T01:10:44.370Z,100825.41
2023-05-05T01:13:56.840Z,100826.78
2023-05-05T01:17:02.746Z,100835.72
2023-05-05T01:20:11.359Z,100827.63
2023-05-05T01:23:28.487Z,100836.31
2023-05-05T01:26:42.882Z,100832.94
2023-05-05T01:30:13.458Z,100827.69
2023-05-05T01:33:23.363Z,100833.63
2023-05-05T01:36:55.854Z,100827.00
2023-05-05T01:40:05.270Z,100820.63
2023-05-05T01:43:10.548Z,100826.13
2023-05-05T01:46:28.328Z,100819.75
2023-05-05T01:49:33.340Z,100823.37
2023-05-05T01:52:41.258Z,100819.28
2023-05-05T01:55:49.526Z,100829.44
2023-05-05T01:59:47.086Z,100822.78
2023-05-05T02:02:28.856Z,100818.16
2023-05-05T02:05:33.749Z,100816.16
2023-05-05T02:08:38.065Z,100819.28
2023-05-05T02:11:41.884Z,100816.75
2023-05-05T02:14:46.440Z,100814.09
2023-05-05T02:17:54.409Z,100813.97
2023-05-05T02:20:57.729Z,100822.09
2023-05-05T02:24:01.438Z,100820.88
2023-05-05T02:27:07.507Z,100821.91
2023-05-05T02:30:15.994Z,100815.31
2023-05-05T02:33:21.465Z,100817.72
2023-05-05T02:36:29.152Z,100815.31
2023-05-05T02:39:38.407Z,100820.28
2023-05-05T02:42:48.142Z,100811.94
2023-05-05T02:45:51.151Z,100815.06
2023-05-05T02:48:55.133Z,100813.37
2023-05-05T02:51:58.148Z,100815.31
2023-05-05T02:55:02.982Z,100816.91
2023-05-05T02:58:08.663Z,100818.25
2023-05-05T03:01:25.759Z,100808.28
2023-05-05T03:04:38.554Z,100818.81
2023-05-05T03:07:51.552Z,100822.50
2023-05-05T03:11:05.131Z,100827.31
2023-05-05T03:14:17.340Z,100835.22
2023-05-05T03:17:22.635Z,100823.81
2023-05-05T03:20:26.817Z,100840.91
2023-05-05T03:23:32.681Z,100821.88
2023-05-05T03:26:35.802Z,100840.63
2023-05-05T03:29:38.620Z,100840.19
2023-05-05T03:32:42.989Z,100830.28
2023-05-05T03:35:46.032Z,100834.06
2023-05-05T03:38:49.704Z,100832.03
2023-05-05T03:41:53.937Z,100841.16
2023-05-05T03:44:57.451Z,100839.03
2023-05-05T03:48:00.965Z,100840.25
2023-05-05T03:51:04.702Z,100839.38
2023-05-05T03:54:08.451Z,100835.25
2023-05-05T03:57:11.830Z,100829.13
2023-05-05T04:00:15.352Z,100837.25
2023-05-05T04:03:20.068Z,100848.88
2023-05-05T04:06:23.512Z,100853.72
2023-05-05T04:09:26.796Z,100858.41
2023-05-05T04:12:29.910Z,100859.78
2023-05-05T04:15:33.178Z,100863.75
2023-05-05T04:18:37.021Z,100862.19
2023-05-05T04:21:40.375Z,100868.19
2023-05-05T04:24:43.375Z,100862.66
2023-05-05T04:28:43.134Z,100865.91
2023-05-05T04:31:46.539Z,100861.09
2023-05-05T04:34:50.664Z,100868.31
2023-05-05T04:37:54.877Z,100864.97
2023-05-05T04:40:58.021Z,100869.81
2023-05-05T04:44:00.974Z,100873.66
2023-05-05T04:47:04.385Z,100871.22
2023-05-05T04:50:08.452Z,100873.47
2023-05-05T04:53:11.916Z,100876.22
2023-05-05T04:56:14.896Z,100870.66
2023-05-05T04:59:17.982Z,100885.78
2023-05-05T05:02:20.785Z,100872.22
2023-05-05T05:05:25.362Z,100882.72
2023-05-05T05:08:28.143Z,100874.19
2023-05-05T05:11:31.247Z,100883.06
2023-05-05T05:14:40.573Z,100882.16
2023-05-05T05:17:43.597Z,100884.91
2023-05-05T05:20:46.535Z,100884.00
2023-05-05T05:23:50.212Z,100884.66
2023-05-05T05:26:53.065Z,100886.91
2023-05-05T05:29:56.202Z,100882.22
2023-05-05T05:32:59.971Z,100884.87
2023-05-05T05:36:03.648Z,100893.59
2023-05-05T05:39:06.883Z,100886.59
2023-05-05T05:42:10.151Z,100889.91
2023-05-05T05:45:13.467Z,100893.12
2023-05-05T05:48:18.685Z,100895.53
2023-05-05T05:51:21.544Z,100894.09
2023-05-05T05:54:25.331Z,100885.13
2023-05-05T05:57:28.188Z,100885.16
2023-05-05T06:00:31.546Z,100893.88
2023-05-05T06:03:35.292Z,100882.81
2023-05-05T06:06:38.284Z,100886.38
2023-05-05T06:09:41.631Z,100895.44
2023-05-05T06:12:45.296Z,100894.28
2023-05-05T06:15:48.654Z,100903.75
2023-05-05T06:18:52.180Z,100904.50
2023-05-05T06:21:55.458Z,100902.81
2023-05-05T06:24:58.580Z,100879.91
2023-05-05T06:28:02.328Z,100896.47
2023-05-05T06:31:05.740Z,100904.34
2023-05-05T06:34:09.287Z,100898.88
2023-05-05T06:37:12.578Z,100900.78
2023-05-05T06:40:15.996Z,100898.34
2023-05-05T06:43:19.041Z,100910.47
2023-05-05T06:46:22.727Z,100892.94
2023-05-05T06:49:25.881Z,100909.81
2023-05-05T06:52:29.346Z,100905.00
2023-05-05T06:55:32.544Z,100903.19
2023-05-05T06:58:36.302Z,100913.69
2023-05-05T07:01:39.410Z,100906.81
2023-05-05T07:04:44.005Z,100908.25
2023-05-05T07:07:54.737Z,100907.75
2023-05-05T07:10:57.983Z,100909.81
2023-05-05T07:14:01.259Z,100913.34
2023-05-05T07:17:04.309Z,100907.75
2023-05-05T07:20:11.329Z,100912.41
2023-05-05T07:23:14.619Z,100906.56
2023-05-05T07:26:17.667Z,100901.75
2023-05-05T07:29:20.980Z,100901.03
2023-05-05T07:32:24.039Z,100903.31
2023-05-05T07:35:27.935Z,100901.75
2023-05-05T07:38:30.942Z,100904.28
2023-05-05T07:41:34.194Z,100897.97
2023-05-05T07:44:37.406Z,100898.28
2023-05-05T07:47:40.933Z,100892.31
2023-05-05T07:50:43.677Z,100893.12
2023-05-05T07:53:46.588Z,100890.38
2023-05-05T07:56:49.404Z,100886.59
2023-05-05T07:59:52.578Z,100892.72
2023-05-05T08:02:55.480Z,100884.50
2023-05-05T08:06:08.679Z,100894.25
2023-05-05T08:09:11.465Z,100884.25
2023-05-05T08:12:15.355Z,100888.81
2023-05-05T08:15:18.062Z,100887.69
2023-05-05T08:18:21.143Z,100895.97
2023-05-05T08:21:24.045Z,100890.41
2023-05-05T08:24:27.668Z,100884.47
2023-05-05T08:27:31.885Z,100882.75
2023-05-05T08:30:35.943Z,100885.47
2023-05-05T08:33:38.730Z,100898.91
2023-05-05T08:36:41.779Z,100899.03
2023-05-05T08:39:44.848Z,100894.69
2023-05-05T08:42:47.987Z,100894.91
2023-05-05T08:45:51.876Z,100894.09
2023-05-05T08:48:59.358Z,100895.69
2023-05-05T08:52:05.259Z,100884.69
2023-05-05T08:55:24.205Z,100891.47
2023-05-05T08:58:37.648Z,100885.34
2023-05-05T09:01:42.936Z,100884.19
2023-05-05T09:04:45.739Z,100880.41
2023-05-05T09:07:49.942Z,100879.06
2023-05-05T09:10:52.884Z,100884.09
2023-05-05T09:17:25.285Z,100873.00
2023-05-05T09:20:36.261Z,100867.19
2023-05-05T09:23:38.948Z,100865.97
2023-05-05T09:26:45.695Z,100862.56
2023-05-05T09:29:49.890Z,100874.00
2023-05-05T09:32:56.054Z,100869.31
2023-05-05T09:35:59.022Z,100866.12
2023-05-05T09:39:06.335Z,100867.72
2023-05-05T09:42:18.843Z,100861.28
2023-05-05T09:45:23.449Z,100860.44
2023-05-05T09:48:31.413Z,100861.91
2023-05-05T09:51:34.655Z,100863.84
2023-05-05T09:54:37.333Z,100851.81
2023-05-05T09:57:40.402Z,100854.09
2023-05-05T10:00:43.021Z,100853.84
2023-05-05T10:03:54.856Z,100845.50
2023-05-05T10:06:58.879Z,100848.97
2023-05-05T10:10:07.359Z,100835.22
2023-05-05T10:13:11.724Z,100845.28
2023-05-05T10:16:15.165Z,100838.34
2023-05-05T10:19:20.203Z,100829.28
2023-05-05T10:22:24.197Z,100839.84
2023-05-05T10:25:33.315Z,100846.09
2023-05-05T10:28:55.702Z,100845.09
2023-05-05T10:32:16.493Z,100835.69
2023-05-05T10:35:27.827Z,100837.91
2023-05-05T10:38:31.656Z,100827.28
2023-05-05T10:41:35.604Z,100831.47
2023-05-05T10:44:38.490Z,100811.22
2023-05-05T10:47:44.609Z,100825.19
2023-05-05T10:51:24.113Z,100824.50
2023-05-05T10:54:56.103Z,100817.31
2023-05-05T10:57:59.002Z,100811.66
2023-05-05T11:01:03.124Z,100810.16
2023-05-05T11:04:23.127Z,100803.88
2023-05-05T11:07:27.590Z,100804.47
2023-05-05T11:10:44.307Z,100808.28
2023-05-05T11:13:47.720Z,100799.19
2023-05-05T11:16:50.716Z,100791.28
2023-05-05T11:19:53.787Z,100785.91
2023-05-05T11:23:02.483Z,100781.25
2023-05-05T11:26:05.505Z,100780.88
2023-05-05T11:29:08.547Z,100776.37
2023-05-05T11:32:13.162Z,100778.19
2023-05-05T11:35:16.395Z,100765.28
2023-05-05T11:38:23.364Z,100764.66
2023-05-05T11:41:57.088Z,100758.53
2023-05-05T11:45:00.256Z,100756.03
2023-05-05T11:48:24.472Z,100763.84
2023-05-05T11:51:28.801Z,100759.13
2023-05-05T11:54:32.187Z,100747.94
2023-05-05T11:57:35.197Z,100731.56
2023-05-05T12:00:37.984Z,100750.44
2023-05-05T12:03:41.381Z,100739.31
2023-05-05T12:06:45.880Z,100742.97
2023-05-05T12:09:50.037Z,100722.50
2023-05-05T12:12:55.179Z,100739.09
2023-05-05T12:16:13.037Z,100734.25
2023-05-05T12:19:16.034Z,100733.22
2023-05-05T12:22:25.641Z,100732.25
2023-05-05T12:25:34.997Z,100732.69
2023-05-05T12:28:47.929Z,100731.91
2023-05-05T12:31:51.146Z,100726.19
2023-05-05T12:34:57.346Z,100718.97
2023-05-05T12:38:00.407Z,100724.75
2023-05-05T12:41:03.783Z,100722.19
2023-05-05T12:44:06.838Z,100718.81
2023-05-05T12:47:11.570Z,100717.03
2023-05-05T12:50:14.316Z,100717.53
2023-05-05T12:53:24.789Z,100716.56
2023-05-05T12:56:36.415Z,100698.06
2023-05-05T12:59:39.790Z,100711.94
2023-05-05T13:02:42.767Z,100705.78
2023-05-05T13:05:45.962Z,100694.28
2023-05-05T13:08:48.974Z,100693.50
2023-05-05T13:11:53.082Z,100685.44
2023-05-05T13:14:55.885Z,100686.00
2023-05-05T13:18:03.002Z,100690.38
2023-05-05T13:21:05.755Z,100678.84
2023-05-05T13:24:23.666Z,100672.53
2023-05-05T13:27:31.619Z,100664.81
2023-05-05T13:30:34.720Z,100665.91
2023-05-05T13:33:37.383Z,100664.91
2023-05-05T13:36:40.519Z,100656.19
2023-05-05T13:39:43.423Z,100653.69
2023-05-05T13:42:46.939Z,100642.88
2023-05-05T13:45:49.670Z,100643.06
2023-05-05T13:48:56.392Z,100646.28
2023-05-05T13:51:59.598Z,100642.88
2023-05-05T13:55:02.867Z,100633.03
2023-05-05T13:58:05.697Z,100638.09
2023-05-05T14:01:08.744Z,100628.41
2023-05-05T14:04:11.855Z,100623.59
2023-05-05T14:07:14.633Z,100628.78
2023-05-05T14:10:17.704Z,100630.47
2023-05-05T14:13:20.545Z,100625.00
2023-05-05T14:16:23.798Z,100629.38
2023-05-05T14:19:26.568Z,100625.34
2023-05-05T14:22:29.937Z,100619.09
2023-05-05T14:25:32.851Z,100613.44
2023-05-05T14:28:36.103Z,100611.44
2023-05-05T14:31:38.960Z,100596.81
2023-05-05T14:34:42.330Z,100597.41
2023-05-05T14:37:45.020Z,100610.66
2023-05-05T14:40:48.021Z,100601.66
2023-05-05T14:43:50.790Z,100595.53
2023-05-05T14:46:53.859Z,100601.25
2023-05-05T14:49:56.756Z,100591.50
2023-05-05T14:52:59.889Z,100593.44
2023-05-05T14:56:03.294Z,100595.94
2023-05-05T14:59:06.494Z,100591.62
2023-05-05T15:02:09.235Z,100588.63
2023-05-05T15:05:12.343Z,100590.56
2023-05-05T15:08:15.307Z,100591.94
2023-05-05T15:11:18.234Z,100596.53
2023-05-05T15:14:21.285Z,100599.97
2023-05-05T15:17:24.832Z,100595.34
2023-05-05T15:20:27.902Z,100586.22
2023-05-05T15:23:30.912Z,100588.00
2023-05-05T15:26:33.609Z,100587.78
2023-05-05T15:29:36.768Z,100585.03
2023-05-05T15:32:42.554Z,100590.34
2023-05-05T15:35:45.851Z,100586.97
2023-05-05T15:38:49.342Z,100589.13
2023-05-05T15:41:52.534Z,100577.28
2023-05-05T15:44:55.243Z,100576.50
2023-05-05T15:47:58.250Z,100579.56
2023-05-05T15:51:01.277Z,100568.22
2023-05-05T15:54:04.699Z,100565.56
2023-05-05T15:57:07.407Z,100566.00
2023-05-05T16:00:17.160Z,100556.97
2023-05-05T16:03:20.486Z,100567.72
2023-05-05T16:06:23.278Z,100575.09
2023-05-05T16:09:26.396Z,100569.16
2023-05-05T16:12:29.406Z,100564.31
2023-05-05T16:15:32.340Z,100555.91
2023-05-05T16:18:35.097Z,100551.47
2023-05-05T16:21:38.168Z,100563.88
2023-05-05T16:24:43.104Z,100552.91
2023-05-05T16:27:47.088Z,100547.62
2023-05-05T16:30:49.814Z,100549.47
2023-05-05T16:33:52.958Z,100548.53
2023-05-05T16:36:56.168Z,100549.03
2023-05-05T16:40:00.843Z,100546.41
2023-05-05T16:43:04.239Z,100557.19
2023-05-05T16:46:07.396Z,100553.41
2023-05-05T16:49:10.451Z,100548.03
2023-05-05T16:52:13.696Z,100555.22
2023-05-05T16:55:16.506Z,100558.22
2023-05-05T16:58:20.780Z,100558.44
2023-05-05T17:01:24.050Z,100554.66
2023-05-05T17:04:27.399Z,100555.09
2023-05-05T17:07:30.062Z,100560.44
2023-05-05T17:10:33.767Z,100564.19
2023-05-05T17:13:36.560Z,100557.38
2023-05-05T17:16:39.614Z,100555.03
2023-05-05T17:19:42.846Z,100549.06
2023-05-05T17:22:46.706Z,100560.81
2023-05-05T17:25:49.423Z,100561.88
2023-05-05T17:29:01.090Z,100565.44
2023-05-05T17:32:04.181Z,100566.19
2023-05-05T17:35:08.031Z,100571.88
2023-05-05T17:38:11.517Z,100565.94
2023-05-05T17:41:14.510Z,100559.00
2023-05-05T17:44:23.140Z,100572.63
2023-05-05T17:47:27.264Z,100564.28
2023-05-05T17:50:30.040Z,100573.34
2023-05-05T17:53:33.164Z,100571.28
2023-05-05T17:56:36.920Z,100574.12
2023-05-05T17:59:39.919Z,100566.78
2023-05-05T18:02:42.836Z,100577.84
2023-05-05T18:05:45.945Z,100577.44
2023-05-05T18:08:49.462Z,100576.06
2023-05-05T18:11:54.071Z,100582.28
2023-05-05T18:14:57.125Z,100574.09
2023-05-05T18:18:00.870Z,100580.25
2023-05-05T18:21:04.018Z,100582.34
2023-05-05T18:24:19.275Z,100586.97
2023-05-05T18:27:22.660Z,100579.75
2023-05-05T18:30:25.722Z,100590.66
2023-05-05T18:33:28.497Z,100590.09
2023-05-05T18:36:31.594Z,100592.87
2023-05-05T18:39:34.348Z,100596.97
2023-05-05T18:45:51.090Z,100602.63
2023-05-05T18:48:54.215Z,100600.41
2023-05-05T18:51:57.667Z,100605.50
2023-05-05T18:55:34.611Z,100607.47
2023-05-05T18:58:51.571Z,100609.87
2023-05-05T19:01:54.658Z,100611.91
2023-05-05T19:04:57.491Z,100606.47
2023-05-05T19:08:00.489Z,100602.34
2023-05-05T19:11:03.820Z,100612.00
2023-05-05T19:14:06.834Z,100612.81
2023-05-05T19:17:09.549Z,100610.50
2023-05-05T19:20:12.929Z,100614.88
2023-05-05T19:23:15.707Z,100609.44
2023-05-05T19:26:19.419Z,100616.22
2023-05-05T19:29:22.037Z,100621.47
2023-05-05T19:32:25.752Z,100617.31
2023-05-05T19:35:29.701Z,100619.16
2023-05-05T19:38:33.154Z,100618.81
2023-05-05T19:41:35.957Z,100617.69
2023-05-05T19:44:39.143Z,100612.19
2023-05-05T19:47:41.829Z,100610.59
2023-05-05T19:50:44.849Z,100608.31
2023-05-05T19:53:47.628Z,100617.03
2023-05-05T19:56:52.245Z,100607.94
2023-05-05T19:59:55.300Z,100616.69
2023-05-05T20:02:58.485Z,100618.66
2023-05-05T20:06:01.577Z,100621.84
2023-05-05T20:09:04.918Z,100608.81
2023-05-05T20:12:08.065Z,100617.16
2023-05-05T20:15:11.580Z,100616.75
2023-05-05T20:18:14.613Z,100613.22
2023-05-05T20:21:17.892Z,100611.66
2023-05-05T20:24:20.868Z,100614.41
2023-05-05T20:27:24.184Z,100616.37
2023-05-05T20:30:28.386Z,100612.84
2023-05-05T20:33:31.110Z,100609.28
2023-05-05T20:36:34.152Z,100601.78
2023-05-05T20:39:36.905Z,100612.84
2023-05-05T20:42:39.938Z,100602.19
2023-05-05T20:45:43.026Z,100602.97
2023-05-05T20:48:46.170Z,100610.06
2023-05-05T20:51:49.145Z,100612.44
2023-05-05T20:54:52.247Z,100603.34
2023-05-05T20:57:54.956Z,100606.09
2023-05-05T21:00:58.176Z,100606.13
2023-05-05T21:04:01.529Z,100599.78
2023-05-05T21:07:04.563Z,100595.06
2023-05-05T21:10:08.172Z,100602.53
2023-05-05T21:13:11.829Z,100596.59
2023-05-05T21:16:14.570Z,100608.75
2023-05-05T21:19:17.581Z,100598.94
2023-05-05T21:22:21.074Z,100605.25
2023-05-05T21:25:24.661Z,100606.37
2023-05-05T21:28:27.380Z,100601.28
2023-05-05T21:31:30.461Z,100602.06
2023-05-05T21:34:33.636Z,100598.88
2023-05-05T21:37:39.107Z,100593.37
2023-05-05T21:40:42.204Z,100596.53
2023-05-05T21:43:45.357Z,100582.66
2023-05-05T21:46:48.159Z,100594.84
2023-05-05T21:49:51.289Z,100585.78
2023-05-05T21:52:54.026Z,100583.75
2023-05-05T21:55:57.165Z,100582.53
2023-05-05T21:59:00.182Z,100583.28
2023-05-05T22:02:03.606Z,100583.25
2023-05-05T22:05:07.310Z,100584.03
2023-05-05T22:08:10.022Z,100584.06
2023-05-05T22:11:13.441Z,100576.50
2023-05-05T22:14:16.274Z,100573.00
2023-05-05T22:17:19.225Z,100581.22
2023-05-05T22:20:21.953Z,100581.19
2023-05-05T22:23:25.010Z,100568.19
2023-05-05T22:26:27.823Z,100574.03
2023-05-05T22:29:30.763Z,100567.75
2023-05-05T22:32:33.504Z,100563.03
2023-05-05T22:35:37.606Z,100559.44
2023-05-05T22:38:40.458Z,100563.38
2023-05-05T22:41:43.697Z,100562.13
2023-05-05T22:44:46.417Z,100560.97
2023-05-05T22:47:49.958Z,100558.91
2023-05-05T22:50:52.683Z,100554.12
2023-05-05T22:55:16.648Z,100557.66
2023-05-05T22:58:19.335Z,100558.38
2023-05-05T23:01:22.302Z,100559.44
2023-05-05T23:04:25.180Z,100562.59
2023-05-05T23:07:28.174Z,100567.47
2023-05-05T23:10:31.145Z,100571.38
2023-05-05T23:13:34.124Z,100574.00
2023-05-05T23:16:36.834Z,100567.25
2023-05-05T23:19:40.336Z,100564.47
2023-05-05T23:22:42.975Z,100568.81
2023-05-05T23:25:46.162Z,100563.63
2023-05-05T23:28:48.801Z,100569.53
2023-05-05T23:31:52.079Z,100563.59
2023-05-05T23:34:54.681Z,100567.03
2023-05-05T23:37:57.718Z,100566.69
2023-05-05T23:41:00.453Z,100566.97
2023-05-05T23:44:03.448Z,100569.69
2023-05-05T23:47:06.223Z,100560.53
2023-05-05T23:50:09.592Z,100563.22
2023-05-05T23:53:41.079Z,100563.47
2023-05-05T23:56:51.393Z,100565.81
2023-05-05T23:59:54.133Z,100570.00
